createdAt,value
2016-12-24T00:00:59.818Z,1027.7
2016-12-24T00:02:02.765Z,1027.6
2016-12-24T00:03:06.213Z,1027.7
2016-12-24T00:04:09.160Z,1027.7
2016-12-24T00:05:12.612Z,1027.6
2016-12-24T00:06:15.554Z,1027.7
2016-12-24T00:07:19.002Z,1027.7
2016-12-24T00:08:21.948Z,1027.7
2016-12-24T00:10:28.307Z,1027.6
2016-12-24T00:11:31.753Z,1027.6
2016-12-24T00:12:34.701Z,1027.6
2016-12-24T00:13:38.150Z,1027.5
2016-12-24T00:14:41.099Z,1027.5
2016-12-24T00:15:44.041Z,1027.6
2016-12-24T00:16:47.494Z,1027.5
2016-12-24T00:17:50.439Z,1027.5
2016-12-24T00:18:53.885Z,1027.6
2016-12-24T00:19:56.834Z,1027.6
2016-12-24T00:21:00.286Z,1027.6
2016-12-24T00:22:03.268Z,1027.6
2016-12-24T00:23:06.719Z,1027.6
2016-12-24T00:24:09.663Z,1027.6
2016-12-24T00:25:13.108Z,1027.6
2016-12-24T00:26:16.050Z,1027.5
2016-12-24T00:27:19.498Z,1027.5
2016-12-24T00:28:22.440Z,1027.5
2016-12-24T00:29:25.384Z,1027.4
2016-12-24T00:30:28.831Z,1027.4
2016-12-24T00:31:31.776Z,1027.5
2016-12-24T00:32:35.221Z,1027.5
2016-12-24T00:33:38.198Z,1027.5
2016-12-24T00:34:41.643Z,1027.5
2016-12-24T00:35:44.587Z,1027.5
2016-12-24T00:36:48.038Z,1027.4
2016-12-24T00:37:50.987Z,1027.4
2016-12-24T00:38:54.065Z,1027.4
2016-12-24T00:39:57.511Z,1027.4
2016-12-24T00:41:00.460Z,1027.4
2016-12-24T00:42:03.904Z,1027.4
2016-12-24T00:43:06.846Z,1027.3
2016-12-24T00:44:10.299Z,1027.2
2016-12-24T00:45:13.246Z,1027.3
2016-12-24T00:46:16.689Z,1027.1
2016-12-24T00:47:19.643Z,1027
2016-12-24T00:48:23.088Z,1027
2016-12-24T00:49:26.029Z,1027
2016-12-24T00:50:29.475Z,1027
2016-12-24T00:51:32.421Z,1027.1
2016-12-24T00:52:35.869Z,1027.1
2016-12-24T00:53:38.810Z,1027.1
2016-12-24T00:54:42.255Z,1027.1
2016-12-24T00:56:48.618Z,1026.9
2016-12-24T00:57:51.559Z,1026.9
2016-12-24T00:58:54.503Z,1026.8
2016-12-24T00:59:57.954Z,1026.8
2016-12-24T01:01:00.903Z,1026.8
2016-12-24T01:02:04.347Z,1026.8
2016-12-24T01:03:07.293Z,1026.7
2016-12-24T01:04:10.738Z,1026.8
2016-12-24T01:05:13.679Z,1026.8
2016-12-24T01:06:17.128Z,1026.8
2016-12-24T01:07:20.071Z,1026.7
2016-12-24T01:09:26.428Z,1026.7
2016-12-24T01:10:29.876Z,1026.7
2016-12-24T01:11:32.824Z,1026.6
2016-12-24T01:13:39.209Z,1026.5
2016-12-24T01:14:42.661Z,1026.5
2016-12-24T01:15:45.611Z,1026.5
2016-12-24T01:16:49.064Z,1026.5
2016-12-24T01:17:52.012Z,1026.5
2016-12-24T01:18:54.955Z,1026.4
2016-12-24T01:19:58.407Z,1026.5
2016-12-24T01:21:01.345Z,1026.4
2016-12-24T01:22:04.630Z,1026.4
2016-12-24T01:23:08.073Z,1026.4
2016-12-24T01:24:11.018Z,1026.4
2016-12-24T01:25:14.464Z,1026.3
2016-12-24T01:26:17.409Z,1026.4
2016-12-24T01:28:23.767Z,1026.2
2016-12-24T01:29:27.217Z,1026.2
2016-12-24T01:30:30.162Z,1026.1
2016-12-24T01:31:33.606Z,1026
2016-12-24T01:32:36.552Z,1025.8
2016-12-24T01:33:39.634Z,1025.8
2016-12-24T01:34:43.079Z,1025.8
2016-12-24T01:35:46.024Z,1025.7
2016-12-24T01:36:49.030Z,1025.6
2016-12-24T01:37:52.478Z,1025.7
2016-12-24T01:38:55.424Z,1025.9
2016-12-24T01:39:58.873Z,1025.9
2016-12-24T01:41:01.818Z,1025.8
2016-12-24T01:42:05.263Z,1025.9
2016-12-24T01:43:08.205Z,1026
2016-12-24T01:44:11.660Z,1026.1
2016-12-24T01:45:14.604Z,1026
2016-12-24T01:46:18.052Z,1026.1
2016-12-24T01:47:20.997Z,1026.2
2016-12-24T01:48:24.443Z,1026.3
2016-12-24T01:50:30.808Z,1026.3
2016-12-24T01:51:33.756Z,1026.3
2016-12-24T01:52:36.837Z,1026.4
2016-12-24T01:53:40.281Z,1026.3
2016-12-24T01:54:43.227Z,1026.3
2016-12-24T01:55:46.679Z,1026.2
2016-12-24T01:56:49.625Z,1026.1
2016-12-24T01:57:53.069Z,1025.9
2016-12-24T01:58:56.011Z,1025.8
2016-12-24T01:59:59.466Z,1025.7
2016-12-24T02:01:02.413Z,1025.7
2016-12-24T02:02:05.857Z,1025.9
2016-12-24T02:03:08.806Z,1026
2016-12-24T02:04:11.748Z,1025.9
2016-12-24T02:05:15.192Z,1025.9
2016-12-24T02:06:18.134Z,1026
2016-12-24T02:07:21.584Z,1026
2016-12-24T02:08:24.523Z,1026.1
2016-12-24T02:09:27.968Z,1026.1
2016-12-24T02:10:30.909Z,1026.1
2016-12-24T02:11:34.361Z,1026.1
2016-12-24T02:12:37.304Z,1026
2016-12-24T02:13:40.748Z,1026.1
2016-12-24T02:14:43.694Z,1026.1
2016-12-24T02:15:47.138Z,1025.9
2016-12-24T02:16:50.080Z,1025.9
2016-12-24T02:17:53.525Z,1025.9
2016-12-24T02:18:56.498Z,1025.9
2016-12-24T02:19:59.942Z,1025.8
2016-12-24T02:21:02.888Z,1025.8
2016-12-24T02:22:05.838Z,1025.8
2016-12-24T02:23:09.289Z,1025.7
2016-12-24T02:24:12.236Z,1025.7
2016-12-24T02:25:15.680Z,1025.7
2016-12-24T02:26:18.631Z,1025.7
2016-12-24T02:27:22.083Z,1025.7
2016-12-24T02:28:25.028Z,1025.6
2016-12-24T02:29:28.478Z,1025.5
2016-12-24T02:30:31.554Z,1025.5
2016-12-24T02:31:34.501Z,1025.4
2016-12-24T02:32:37.950Z,1025.4
2016-12-24T02:33:40.902Z,1025.3
2016-12-24T02:34:44.355Z,1025.2
2016-12-24T02:35:47.296Z,1025.3
2016-12-24T02:36:50.746Z,1025.2
2016-12-24T02:37:53.691Z,1025.3
2016-12-24T02:40:00.045Z,1025.3
2016-12-24T02:41:03.138Z,1025.3
2016-12-24T02:42:06.583Z,1025.3
2016-12-24T02:43:09.530Z,1025.3
2016-12-24T02:44:12.983Z,1025.3
2016-12-24T02:45:15.931Z,1025.3
2016-12-24T02:46:19.376Z,1025.3
2016-12-24T02:47:22.318Z,1025.3
2016-12-24T02:48:25.762Z,1025.1
2016-12-24T02:49:28.708Z,1025.1
2016-12-24T02:50:32.152Z,1025.1
2016-12-24T02:51:35.101Z,1025
2016-12-24T02:52:38.546Z,1025.1
2016-12-24T02:53:41.488Z,1025
2016-12-24T02:54:44.937Z,1024.9
2016-12-24T02:55:47.881Z,1024.9
2016-12-24T02:56:51.327Z,1024.9
2016-12-24T02:57:54.276Z,1024.8
2016-12-24T02:58:57.724Z,1024.9
2016-12-24T03:00:00.670Z,1024.9
2016-12-24T03:01:04.121Z,1024.9
2016-12-24T03:02:07.069Z,1024.9
2016-12-24T03:03:10.018Z,1024.8
2016-12-24T03:04:13.463Z,1024.8
2016-12-24T03:05:16.409Z,1024.9
2016-12-24T03:06:19.857Z,1024.8
2016-12-24T03:07:22.803Z,1024.9
2016-12-24T03:08:26.252Z,1024.8
2016-12-24T03:09:29.197Z,1024.8
2016-12-24T03:10:32.650Z,1024.7
2016-12-24T03:11:35.596Z,1024.7
2016-12-24T03:12:39.040Z,1024.8
2016-12-24T03:13:41.990Z,1024.9
2016-12-24T03:14:45.442Z,1024.9
2016-12-24T03:15:48.447Z,1024.9
2016-12-24T03:16:51.390Z,1024.9
2016-12-24T03:17:54.839Z,1024.8
2016-12-24T03:18:57.784Z,1024.8
2016-12-24T03:20:01.232Z,1024.9
2016-12-24T03:21:04.178Z,1024.8
2016-12-24T03:22:07.627Z,1024.7
2016-12-24T03:23:10.565Z,1024.6
2016-12-24T03:24:14.021Z,1024.6
2016-12-24T03:25:16.970Z,1024.7
2016-12-24T03:27:23.324Z,1024.7
2016-12-24T03:28:26.769Z,1024.7
2016-12-24T03:29:29.782Z,1024.7
2016-12-24T03:30:33.227Z,1024.7
2016-12-24T03:31:36.172Z,1024.7
2016-12-24T03:32:39.617Z,1024.8
2016-12-24T03:33:42.559Z,1024.8
2016-12-24T03:34:46.004Z,1024.8
2016-12-24T03:35:48.976Z,1024.8
2016-12-24T03:37:55.331Z,1024.8
2016-12-24T03:40:01.686Z,1024.8
2016-12-24T03:41:05.131Z,1024.8
2016-12-24T03:42:08.072Z,1024.7
2016-12-24T03:43:11.528Z,1024.7
2016-12-24T03:44:14.473Z,1024.7
2016-12-24T03:45:17.419Z,1024.7
2016-12-24T03:46:20.867Z,1024.7
2016-12-24T03:47:23.809Z,1024.7
2016-12-24T03:48:27.253Z,1024.7
2016-12-24T03:49:30.194Z,1024.7
2016-12-24T03:50:33.640Z,1024.7
2016-12-24T03:51:36.579Z,1024.7
2016-12-24T03:52:40.028Z,1024.7
2016-12-24T03:54:46.383Z,1024.6
2016-12-24T03:55:49.321Z,1024.6
2016-12-24T03:56:52.765Z,1024.6
2016-12-24T03:57:55.711Z,1024.6
2016-12-24T03:58:59.169Z,1024.6
2016-12-24T04:00:02.254Z,1024.6
2016-12-24T04:01:05.703Z,1024.5
2016-12-24T04:02:08.644Z,1024.6
2016-12-24T04:03:12.085Z,1024.5
2016-12-24T04:04:15.026Z,1024.5
2016-12-24T04:05:18.468Z,1024.4
2016-12-24T04:06:21.408Z,1024.4
2016-12-24T04:07:24.856Z,1024.4
2016-12-24T04:08:27.798Z,1024.4
2016-12-24T04:09:31.244Z,1024.4
2016-12-24T04:10:34.185Z,1024.4
2016-12-24T04:11:37.631Z,1024.5
2016-12-24T04:12:40.579Z,1024.5
2016-12-24T04:13:44.024Z,1024.5
2016-12-24T04:14:46.960Z,1024.5
2016-12-24T04:15:50.401Z,1024.5
2016-12-24T04:16:53.342Z,1024.5
2016-12-24T04:17:56.785Z,1024.5
2016-12-24T04:18:59.725Z,1024.5
2016-12-24T04:20:03.175Z,1024.4
2016-12-24T04:21:06.119Z,1024.4
2016-12-24T04:22:09.568Z,1024.4
2016-12-24T04:23:12.509Z,1024.4
2016-12-24T04:24:15.957Z,1024.4
2016-12-24T04:25:18.899Z,1024.4
2016-12-24T04:27:25.249Z,1024.4
2016-12-24T04:28:28.335Z,1024.4
2016-12-24T04:29:31.781Z,1024.5
2016-12-24T04:30:34.722Z,1024.5
2016-12-24T04:31:38.163Z,1024.5
2016-12-24T04:32:41.100Z,1024.4
2016-12-24T04:33:44.540Z,1024.4
2016-12-24T04:34:47.482Z,1024.4
2016-12-24T04:35:50.925Z,1024.4
2016-12-24T04:36:53.864Z,1024.3
2016-12-24T04:37:57.307Z,1024.3
2016-12-24T04:40:03.658Z,1024.3
2016-12-24T04:41:06.600Z,1024.3
2016-12-24T04:42:10.078Z,1024.3
2016-12-24T04:43:13.017Z,1024.3
2016-12-24T04:44:16.458Z,1024.3
2016-12-24T04:45:19.398Z,1024.3
2016-12-24T04:46:22.841Z,1024.3
2016-12-24T04:47:25.785Z,1024.4
2016-12-24T04:48:29.223Z,1024.4
2016-12-24T04:49:32.664Z,1024.4
2016-12-24T04:50:35.606Z,1024.4
2016-12-24T04:51:39.054Z,1024.3
2016-12-24T04:52:41.998Z,1024.3
2016-12-24T04:53:45.396Z,1024.2
2016-12-24T04:54:48.335Z,1024.2
2016-12-24T04:55:51.777Z,1024.2
2016-12-24T04:56:54.711Z,1024.1
2016-12-24T04:57:58.159Z,1024.2
2016-12-24T04:59:01.100Z,1024.1
2016-12-24T05:00:04.545Z,1024.2
2016-12-24T05:01:07.487Z,1024.2
2016-12-24T05:02:10.933Z,1024.2
2016-12-24T05:03:13.876Z,1024.2
2016-12-24T05:04:17.316Z,1024.2
2016-12-24T05:05:20.255Z,1024.2
2016-12-24T05:06:23.700Z,1024.2
2016-12-24T05:07:26.643Z,1024.2
2016-12-24T05:08:30.085Z,1024.2
2016-12-24T05:09:33.027Z,1024.2
2016-12-24T05:10:36.472Z,1024.2
2016-12-24T05:11:39.412Z,1024.2
2016-12-24T05:12:42.853Z,1024.2
2016-12-24T05:13:45.796Z,1024.2
2016-12-24T05:14:49.236Z,1024.2
2016-12-24T05:15:52.182Z,1024.2
2016-12-24T05:16:55.658Z,1024.2
2016-12-24T05:17:58.602Z,1024.1
2016-12-24T05:19:02.045Z,1024.1
2016-12-24T05:20:04.984Z,1024.1
2016-12-24T05:22:11.338Z,1024.1
2016-12-24T05:23:14.784Z,1024.1
2016-12-24T05:24:17.718Z,1024.2
2016-12-24T05:25:21.170Z,1024.2
2016-12-24T05:26:24.120Z,1024.2
2016-12-24T05:27:27.563Z,1024.2
2016-12-24T05:28:30.501Z,1024.2
2016-12-24T05:29:33.945Z,1024.2
2016-12-24T05:30:37.383Z,1024.2
2016-12-24T05:31:40.323Z,1024.2
2016-12-24T05:32:43.764Z,1024.2
2016-12-24T05:33:46.703Z,1024.2
2016-12-24T05:34:50.148Z,1024.3
2016-12-24T05:35:53.091Z,1024.2
2016-12-24T05:36:56.537Z,1024.2
2016-12-24T05:37:59.506Z,1024.3
2016-12-24T05:39:02.954Z,1024.2
2016-12-24T05:40:05.897Z,1024.2
2016-12-24T05:41:08.969Z,1024.2
2016-12-24T05:42:12.410Z,1024.2
2016-12-24T05:43:15.356Z,1024.2
2016-12-24T05:44:18.804Z,1024.2
2016-12-24T05:45:21.747Z,1024.2
2016-12-24T05:46:25.196Z,1024.2
2016-12-24T05:47:28.141Z,1024.2
2016-12-24T05:48:31.585Z,1024.2
2016-12-24T05:49:34.555Z,1024.2
2016-12-24T05:50:38.010Z,1024.2
2016-12-24T05:51:40.949Z,1024.2
2016-12-24T05:52:44.390Z,1024.2
2016-12-24T05:53:47.331Z,1024.1
2016-12-24T05:55:54.190Z,1024.2
2016-12-24T05:56:57.137Z,1024.1
2016-12-24T05:58:00.589Z,1024.1
2016-12-24T05:59:03.530Z,1024.1
2016-12-24T06:00:06.971Z,1024.1
2016-12-24T06:01:09.921Z,1024.1
2016-12-24T06:02:13.367Z,1024.1
2016-12-24T06:03:16.303Z,1024.1
2016-12-24T06:04:19.743Z,1024.1
2016-12-24T06:05:22.686Z,1024.2
2016-12-24T06:06:26.126Z,1024.1
2016-12-24T06:07:29.067Z,1024.2
2016-12-24T06:09:35.422Z,1024.2
2016-12-24T06:10:38.865Z,1024.1
2016-12-24T06:11:41.812Z,1024.1
2016-12-24T06:13:48.169Z,1024.2
2016-12-24T06:14:51.610Z,1024.2
2016-12-24T06:15:55.055Z,1024.1
2016-12-24T06:16:57.994Z,1024.1
2016-12-24T06:18:01.437Z,1024.1
2016-12-24T06:19:04.406Z,1024.2
2016-12-24T06:20:07.853Z,1024.2
2016-12-24T06:21:10.789Z,1024.1
2016-12-24T06:22:14.236Z,1024.1
2016-12-24T06:23:17.177Z,1024.1
2016-12-24T06:24:20.623Z,1024.1
2016-12-24T06:25:23.564Z,1024.1
2016-12-24T06:26:27.008Z,1024.1
2016-12-24T06:27:29.957Z,1024
2016-12-24T06:28:33.398Z,1024
2016-12-24T06:29:36.336Z,1024
2016-12-24T06:30:39.785Z,1024
2016-12-24T06:31:42.725Z,1023.9
2016-12-24T06:32:46.171Z,1024
2016-12-24T06:33:49.115Z,1024
2016-12-24T06:34:52.556Z,1024
2016-12-24T06:35:56.005Z,1024
2016-12-24T06:36:58.946Z,1024
2016-12-24T06:38:02.388Z,1024
2016-12-24T06:39:05.333Z,1024
2016-12-24T06:40:08.774Z,1024.1
2016-12-24T06:41:11.719Z,1024
2016-12-24T06:42:15.169Z,1024
2016-12-24T06:44:21.527Z,1024.1
2016-12-24T06:45:24.500Z,1024.1
2016-12-24T06:46:27.953Z,1024
2016-12-24T06:47:31.026Z,1024
2016-12-24T06:48:34.469Z,1024.1
2016-12-24T06:49:37.417Z,1024.1
2016-12-24T06:50:40.857Z,1024.2
2016-12-24T06:51:43.799Z,1024.2
2016-12-24T06:52:47.249Z,1024.2
2016-12-24T06:53:50.185Z,1024.2
2016-12-24T06:54:53.632Z,1024.2
2016-12-24T06:55:56.592Z,1024.3
2016-12-24T06:57:00.037Z,1024.3
2016-12-24T06:58:02.978Z,1024.3
2016-12-24T06:59:06.422Z,1024.2
2016-12-24T07:00:09.359Z,1024.3
2016-12-24T07:01:12.874Z,1024.2
2016-12-24T07:02:15.826Z,1024.3
2016-12-24T07:03:19.267Z,1024.2
2016-12-24T07:04:22.209Z,1024.2
2016-12-24T07:05:25.653Z,1024.2
2016-12-24T07:06:28.605Z,1024.2
2016-12-24T07:07:32.183Z,1024.1
2016-12-24T07:08:35.125Z,1024.2
2016-12-24T07:09:38.569Z,1024.2
2016-12-24T07:10:41.508Z,1024.2
2016-12-24T07:11:44.957Z,1024.2
2016-12-24T07:12:47.899Z,1024.2
2016-12-24T07:13:51.343Z,1024.3
2016-12-24T07:14:54.281Z,1024.2
2016-12-24T07:15:57.724Z,1024.3
2016-12-24T07:17:01.178Z,1024.2
2016-12-24T07:18:04.119Z,1024.3
2016-12-24T07:19:07.564Z,1024.3
2016-12-24T07:20:10.502Z,1024.3
2016-12-24T07:21:13.949Z,1024.2
2016-12-24T07:22:17.125Z,1024.2
2016-12-24T07:24:23.471Z,1024.2
2016-12-24T07:25:26.410Z,1024.3
2016-12-24T07:26:29.861Z,1024.2
2016-12-24T07:27:32.808Z,1024.3
2016-12-24T07:28:36.249Z,1024.3
2016-12-24T07:29:39.694Z,1024.3
2016-12-24T07:30:42.643Z,1024.3
2016-12-24T07:31:46.094Z,1024.3
2016-12-24T07:32:49.033Z,1024.3
2016-12-24T07:33:52.479Z,1024.3
2016-12-24T07:34:55.413Z,1024.3
2016-12-24T07:35:58.498Z,1024.2
2016-12-24T07:37:01.943Z,1024.2
2016-12-24T07:38:05.393Z,1024.3
2016-12-24T07:39:08.338Z,1024.3
2016-12-24T07:40:11.778Z,1024.4
2016-12-24T07:41:14.724Z,1024.3
2016-12-24T07:43:21.090Z,1024.4
2016-12-24T07:44:24.539Z,1024.5
2016-12-24T07:45:27.475Z,1024.5
2016-12-24T07:46:30.917Z,1024.6
2016-12-24T07:47:33.855Z,1024.6
2016-12-24T07:48:37.495Z,1024.6
2016-12-24T07:49:40.438Z,1024.6
2016-12-24T07:50:43.884Z,1024.6
2016-12-24T07:51:46.824Z,1024.6
2016-12-24T07:52:50.268Z,1024.7
2016-12-24T07:53:53.212Z,1024.7
2016-12-24T07:54:56.657Z,1024.6
2016-12-24T07:55:59.731Z,1024.6
2016-12-24T07:57:03.048Z,1024.7
2016-12-24T07:58:05.991Z,1024.7
2016-12-24T07:59:09.440Z,1024.7
2016-12-24T08:00:12.378Z,1024.8
2016-12-24T08:01:15.822Z,1024.8
2016-12-24T08:02:18.764Z,1024.7
2016-12-24T08:03:22.208Z,1024.7
2016-12-24T08:04:25.654Z,1024.8
2016-12-24T08:05:28.602Z,1024.8
2016-12-24T08:06:32.049Z,1024.8
2016-12-24T08:07:34.997Z,1024.8
2016-12-24T08:08:38.438Z,1024.8
2016-12-24T08:09:41.381Z,1024.9
2016-12-24T08:12:51.143Z,1024.9
2016-12-24T08:13:56.046Z,1024.9
2016-12-24T08:14:57.507Z,1024.9
2016-12-24T08:16:00.955Z,1024.9
2016-12-24T08:17:03.904Z,1024.9
2016-12-24T08:18:07.355Z,1024.9
2016-12-24T08:19:10.297Z,1024.9
2016-12-24T08:20:13.741Z,1025
2016-12-24T08:21:16.679Z,1025
2016-12-24T08:22:20.127Z,1024.9
2016-12-24T08:23:23.064Z,1025
2016-12-24T08:24:26.509Z,1025
2016-12-24T08:25:29.447Z,1025
2016-12-24T08:26:32.908Z,1025
2016-12-24T08:27:35.850Z,1025
2016-12-24T08:28:39.349Z,1025
2016-12-24T08:29:42.299Z,1025.1
2016-12-24T08:30:45.745Z,1025.1
2016-12-24T08:31:48.682Z,1025
2016-12-24T08:32:52.127Z,1025.1
2016-12-24T08:33:55.097Z,1025.1
2016-12-24T08:34:58.690Z,1025.1
2016-12-24T08:36:01.628Z,1025.1
2016-12-24T08:37:05.072Z,1025.1
2016-12-24T08:38:08.014Z,1025.2
2016-12-24T08:39:11.465Z,1025.1
2016-12-24T08:40:14.404Z,1025.2
2016-12-24T08:41:17.852Z,1025.2
2016-12-24T08:42:20.792Z,1025.3
2016-12-24T08:43:24.267Z,1025.3
2016-12-24T08:44:27.217Z,1025.3
2016-12-24T08:45:30.661Z,1025.3
2016-12-24T08:46:34.110Z,1025.3
2016-12-24T08:47:37.047Z,1025.4
2016-12-24T08:48:40.492Z,1025.4
2016-12-24T08:49:43.438Z,1025.5
2016-12-24T08:50:46.883Z,1025.5
2016-12-24T08:51:49.825Z,1025.5
2016-12-24T08:52:53.265Z,1025.5
2016-12-24T08:53:56.204Z,1025.6
2016-12-24T08:54:59.649Z,1025.6
2016-12-24T08:56:02.601Z,1025.7
2016-12-24T08:57:06.048Z,1025.7
2016-12-24T08:58:09.501Z,1025.8
2016-12-24T08:59:12.507Z,1025.8
2016-12-24T09:00:15.516Z,1025.8
2016-12-24T09:01:19.103Z,1025.8
2016-12-24T09:02:22.042Z,1025.8
2016-12-24T09:03:25.490Z,1025.9
2016-12-24T09:04:28.436Z,1025.9
2016-12-24T09:05:31.884Z,1025.9
2016-12-24T09:06:34.826Z,1025.9
2016-12-24T09:07:38.272Z,1025.9
2016-12-24T09:08:41.218Z,1025.9
2016-12-24T09:09:44.661Z,1026
2016-12-24T09:10:47.623Z,1026
2016-12-24T09:11:51.064Z,1026.1
2016-12-24T09:12:54.509Z,1026.1
2016-12-24T09:13:57.448Z,1026.2
2016-12-24T09:15:00.894Z,1026.2
2016-12-24T09:16:03.839Z,1026.2
2016-12-24T09:17:07.284Z,1026.2
2016-12-24T09:18:10.226Z,1026.2
2016-12-24T09:19:13.671Z,1026.3
2016-12-24T09:20:16.608Z,1026.3
2016-12-24T09:21:20.054Z,1026.3
2016-12-24T09:22:22.998Z,1026.3
2016-12-24T09:23:26.444Z,1026.4
2016-12-24T09:24:29.891Z,1026.4
2016-12-24T09:25:32.830Z,1026.4
2016-12-24T09:26:36.278Z,1026.5
2016-12-24T09:27:39.223Z,1026.5
2016-12-24T09:28:42.667Z,1026.5
2016-12-24T09:29:45.608Z,1026.5
2016-12-24T09:30:49.057Z,1026.5
2016-12-24T09:31:52.007Z,1026.5
2016-12-24T09:32:55.456Z,1026.6
2016-12-24T09:33:58.901Z,1026.5
2016-12-24T09:35:01.842Z,1026.6
2016-12-24T09:36:05.288Z,1026.6
2016-12-24T09:37:08.234Z,1026.6
2016-12-24T09:38:11.681Z,1026.6
2016-12-24T09:39:14.624Z,1026.6
2016-12-24T09:40:18.085Z,1026.6
2016-12-24T09:41:21.031Z,1026.6
2016-12-24T09:42:24.476Z,1026.6
2016-12-24T09:43:27.418Z,1026.6
2016-12-24T09:44:30.898Z,1026.6
2016-12-24T09:45:33.848Z,1026.7
2016-12-24T09:46:37.289Z,1026.7
2016-12-24T09:47:40.734Z,1026.7
2016-12-24T09:48:43.674Z,1026.7
2016-12-24T09:49:47.127Z,1026.8
2016-12-24T09:50:50.071Z,1026.8
2016-12-24T09:51:53.515Z,1026.8
2016-12-24T09:52:56.452Z,1026.8
2016-12-24T09:53:59.895Z,1026.8
2016-12-24T09:55:02.844Z,1026.8
2016-12-24T09:56:06.288Z,1026.9
2016-12-24T09:57:09.735Z,1026.9
2016-12-24T09:58:12.675Z,1026.9
2016-12-24T09:59:16.119Z,1026.9
2016-12-24T10:00:19.066Z,1026.9
2016-12-24T10:01:22.514Z,1026.9
2016-12-24T10:03:28.868Z,1026.9
2016-12-24T10:04:32.313Z,1026.9
2016-12-24T10:05:35.273Z,1027
2016-12-24T10:06:38.716Z,1027.1
2016-12-24T10:07:41.662Z,1027
2016-12-24T10:08:45.107Z,1027.1
2016-12-24T10:09:48.047Z,1027.1
2016-12-24T10:10:51.500Z,1027.1
2016-12-24T10:11:54.439Z,1027.2
2016-12-24T10:12:57.887Z,1027.2
2016-12-24T10:14:01.335Z,1027.2
2016-12-24T10:15:04.276Z,1027.2
2016-12-24T10:16:08.780Z,1027.2
2016-12-24T10:17:10.707Z,1027.2
2016-12-24T10:18:14.150Z,1027.2
2016-12-24T10:19:17.091Z,1027.2
2016-12-24T10:20:20.539Z,1027.2
2016-12-24T10:21:23.478Z,1027.2
2016-12-24T10:22:26.923Z,1027.3
2016-12-24T10:23:29.929Z,1027.3
2016-12-24T10:24:33.373Z,1027.3
2016-12-24T10:26:39.725Z,1027.3
2016-12-24T10:28:46.080Z,1027.3
2016-12-24T10:29:49.549Z,1027.3
2016-12-24T10:30:52.498Z,1027.3
2016-12-24T10:31:55.943Z,1027.3
2016-12-24T10:32:59.383Z,1027.3
2016-12-24T10:34:02.322Z,1027.4
2016-12-24T10:35:05.773Z,1027.4
2016-12-24T10:36:08.716Z,1027.4
2016-12-24T10:37:12.162Z,1027.4
2016-12-24T10:38:15.108Z,1027.5
2016-12-24T10:39:18.545Z,1027.4
2016-12-24T10:40:21.490Z,1027.4
2016-12-24T10:41:24.935Z,1027.4
2016-12-24T10:42:28.381Z,1027.4
2016-12-24T10:43:31.322Z,1027.5
2016-12-24T10:44:34.770Z,1027.4
2016-12-24T10:45:37.715Z,1027.4
2016-12-24T10:46:41.169Z,1027.5
2016-12-24T10:47:44.107Z,1027.5
2016-12-24T10:48:47.556Z,1027.5
2016-12-24T10:49:50.527Z,1027.5
2016-12-24T10:50:53.982Z,1027.6
2016-12-24T10:51:57.423Z,1027.6
2016-12-24T10:53:00.360Z,1027.6
2016-12-24T10:54:03.802Z,1027.6
2016-12-24T10:55:06.744Z,1027.6
2016-12-24T10:56:10.192Z,1027.7
2016-12-24T10:57:13.134Z,1027.7
2016-12-24T10:58:16.584Z,1027.7
2016-12-24T10:59:20.028Z,1027.7
2016-12-24T11:00:22.966Z,1027.8
2016-12-24T11:01:26.422Z,1027.8
2016-12-24T11:03:32.773Z,1027.9
2016-12-24T11:04:35.710Z,1027.9
2016-12-24T11:05:39.166Z,1027.9
2016-12-24T11:06:42.609Z,1027.9
2016-12-24T11:07:45.550Z,1028
2016-12-24T11:08:48.994Z,1028
2016-12-24T11:09:51.936Z,1028.1
2016-12-24T11:10:55.381Z,1028.1
2016-12-24T11:11:58.319Z,1028.1
2016-12-24T11:13:01.763Z,1028.1
2016-12-24T11:14:05.209Z,1028.1
2016-12-24T11:15:08.155Z,1028.1
2016-12-24T11:16:11.612Z,1028.1
2016-12-24T11:17:14.553Z,1028.1
2016-12-24T11:18:17.998Z,1028.1
2016-12-24T11:19:21.072Z,1028.1
2016-12-24T11:20:24.522Z,1028.3
2016-12-24T11:21:27.462Z,1028.3
2016-12-24T11:22:30.908Z,1028.3
2016-12-24T11:23:33.849Z,1028.4
2016-12-24T11:24:37.294Z,1028.4
2016-12-24T11:25:40.739Z,1028.4
2016-12-24T11:26:43.685Z,1028.5
2016-12-24T11:27:47.130Z,1028.5
2016-12-24T11:28:50.325Z,1028.4
2016-12-24T11:29:53.268Z,1028.5
2016-12-24T11:33:03.038Z,1028.5
2016-12-24T11:34:06.486Z,1028.6
2016-12-24T11:35:09.425Z,1028.6
2016-12-24T11:36:12.869Z,1028.7
2016-12-24T11:37:16.325Z,1028.7
2016-12-24T11:38:19.263Z,1028.7
2016-12-24T11:39:22.710Z,1028.7
2016-12-24T11:40:25.671Z,1028.8
2016-12-24T11:41:29.115Z,1028.8
2016-12-24T11:42:32.057Z,1028.9
2016-12-24T11:43:35.506Z,1028.9
2016-12-24T11:44:38.951Z,1028.9
2016-12-24T11:45:41.893Z,1028.9
2016-12-24T11:46:45.336Z,1028.8
2016-12-24T11:47:48.279Z,1028.9
2016-12-24T11:48:51.736Z,1028.9
2016-12-24T11:49:54.680Z,1028.9
2016-12-24T11:50:58.126Z,1029
2016-12-24T11:52:01.567Z,1029
2016-12-24T11:53:04.545Z,1029.1
2016-12-24T11:54:08.026Z,1029.1
2016-12-24T11:55:10.971Z,1029.1
2016-12-24T11:56:14.416Z,1027.6
2016-12-24T11:57:17.359Z,1027.7
2016-12-24T11:58:20.831Z,1027.7
2016-12-24T11:59:23.775Z,1027.7
2016-12-24T12:00:27.217Z,1027.8
2016-12-24T12:01:30.660Z,1027.9
2016-12-24T12:02:33.603Z,1027.9
2016-12-24T12:03:37.051Z,1027.8
2016-12-24T12:04:39.990Z,1027.9
2016-12-24T12:05:43.434Z,1027.8
2016-12-24T12:06:46.879Z,1028
2016-12-24T12:07:49.822Z,1028
2016-12-24T12:08:53.268Z,1028
2016-12-24T12:09:56.216Z,1028
2016-12-24T12:10:59.668Z,1028.1
2016-12-24T12:12:03.125Z,1028.1
2016-12-24T12:13:06.062Z,1028.1
2016-12-24T12:14:09.507Z,1028.1
2016-12-24T12:15:12.448Z,1028.3
2016-12-24T12:16:15.894Z,1028.3
2016-12-24T12:17:19.339Z,1028.3
2016-12-24T12:18:22.280Z,1027.3
2016-12-24T12:19:25.728Z,1027.3
2016-12-24T12:20:28.737Z,1027.2
2016-12-24T12:21:32.180Z,1027.2
2016-12-24T12:22:35.121Z,1027.2
2016-12-24T12:23:38.565Z,1027.1
2016-12-24T12:24:42.010Z,1027.1
2016-12-24T12:25:44.956Z,1027.1
2016-12-24T12:26:48.401Z,1027.2
2016-12-24T12:27:51.483Z,1027.2
2016-12-24T12:28:54.929Z,1027.2
2016-12-24T12:29:57.870Z,1027.2
2016-12-24T12:31:01.317Z,1027.3
2016-12-24T12:32:04.399Z,1027.3
2016-12-24T12:33:07.907Z,1027.3
2016-12-24T12:34:10.846Z,1027.3
2016-12-24T12:35:14.299Z,1027.3
2016-12-24T12:36:17.240Z,1027.3
2016-12-24T12:37:20.709Z,1027.3
2016-12-24T12:38:24.150Z,1027.3
2016-12-24T12:39:27.092Z,1027.3
2016-12-24T12:41:33.447Z,1027.2
2016-12-24T12:42:36.891Z,1027.2
2016-12-24T12:43:40.336Z,1027.2
2016-12-24T12:44:43.276Z,1027.2
2016-12-24T12:45:46.726Z,1027.2
2016-12-24T12:46:49.667Z,1027.2
2016-12-24T12:47:53.104Z,1027.3
2016-12-24T12:48:56.546Z,1027.3
2016-12-24T12:49:59.492Z,1027.3
2016-12-24T12:51:02.933Z,1027.3
2016-12-24T12:52:05.872Z,1027.3
2016-12-24T12:53:09.330Z,1027.3
2016-12-24T12:54:12.777Z,1027.2
2016-12-24T12:55:15.723Z,1027.3
2016-12-24T12:56:19.179Z,1027.3
2016-12-24T12:57:22.118Z,1027.3
2016-12-24T12:58:25.560Z,1027.2
2016-12-24T12:59:29.005Z,1027.2
2016-12-24T13:00:31.950Z,1027.2
2016-12-24T13:01:35.398Z,1027.2
2016-12-24T13:02:38.339Z,1027.2
2016-12-24T13:03:41.809Z,1027.2
2016-12-24T13:04:44.747Z,1027.2
2016-12-24T13:05:48.192Z,1027.2
2016-12-24T13:06:51.644Z,1023.9
2016-12-24T13:07:54.584Z,1024
2016-12-24T13:08:58.028Z,1024.1
2016-12-24T13:10:00.968Z,1024.1
2016-12-24T13:11:04.413Z,1024.2
2016-12-24T13:13:10.767Z,1024.2
2016-12-24T13:14:14.216Z,1024.2
2016-12-24T13:15:17.157Z,1024.2
2016-12-24T13:16:20.602Z,1024.2
2016-12-24T13:18:26.957Z,1024.2
2016-12-24T13:19:30.411Z,1024.1
2016-12-24T13:20:33.483Z,1024.2
2016-12-24T13:21:36.927Z,1024.2
2016-12-24T13:22:40.006Z,1024.2
2016-12-24T13:23:43.459Z,1024.2
2016-12-24T13:24:46.532Z,1024.2
2016-12-24T13:25:49.979Z,1024.2
2016-12-24T13:26:52.920Z,1024.3
2016-12-24T13:27:56.363Z,1024.3
2016-12-24T13:28:59.306Z,1024.3
2016-12-24T13:30:02.751Z,1024.3
2016-12-24T13:31:06.194Z,1024.2
2016-12-24T13:32:09.137Z,1024.2
2016-12-24T13:33:12.587Z,1024.2
2016-12-24T13:34:15.527Z,1024.2
2016-12-24T13:36:22.388Z,1024.1
2016-12-24T13:37:25.326Z,1024.2
2016-12-24T13:38:28.773Z,1024.1
2016-12-24T13:39:31.712Z,1024.2
2016-12-24T13:40:35.157Z,1024.2
2016-12-24T13:41:38.602Z,1024.2
2016-12-24T13:42:41.548Z,1024.2
2016-12-24T13:43:45.016Z,1024.2
2016-12-24T13:44:47.957Z,1024.1
2016-12-24T13:45:51.407Z,1024.2